sensor_id;sensor_type;location;lat;lon;timestamp;pressure;altitude;pressure_sealevel;temperature
77414;BMP280;66486;49.992;19.164;2024-01-15T00:01:32;96957.16;;;1.66
77414;BMP280;66486;49.992;19.164;2024-01-15T00:03:59;96954.97;;;1.61
77414;BMP280;66486;49.992;19.164;2024-01-15T00:06:25;96938.28;;;1.64
77414;BMP280;66486;49.992;19.164;2024-01-15T00:08:52;96938.09;;;1.82
77414;BMP280;66486;49.992;19.164;2024-01-15T00:11:18;96931.34;;;1.74
77414;BMP280;66486;49.992;19.164;2024-01-15T00:13:45;96936.81;;;1.60
77414;BMP280;66486;49.992;19.164;2024-01-15T00:16:11;96935.66;;;1.61
77414;BMP280;66486;49.992;19.164;2024-01-15T00:18:37;96929.28;;;1.55
77414;BMP280;66486;49.992;19.164;2024-01-15T00:21:04;96925.47;;;1.59
77414;BMP280;66486;49.992;19.164;2024-01-15T00:23:29;96914.91;;;1.56
77414;BMP280;66486;49.992;19.164;2024-01-15T00:25:56;96914.78;;;1.66
77414;BMP280;66486;49.992;19.164;2024-01-15T00:28:22;96913.66;;;1.67
77414;BMP280;66486;49.992;19.164;2024-01-15T00:30:48;96914.78;;;1.66
77414;BMP280;66486;49.992;19.164;2024-01-15T00:33:16;96911.78;;;1.64
77414;BMP280;66486;49.992;19.164;2024-01-15T00:35:43;96900.19;;;1.51
77414;BMP280;66486;49.992;19.164;2024-01-15T00:38:08;96896.31;;;1.59
77414;BMP280;66486;49.992;19.164;2024-01-15T00:40:34;96898.81;;;1.73
77414;BMP280;66486;49.992;19.164;2024-01-15T00:43:00;96894.34;;;1.67
77414;BMP280;66486;49.992;19.164;2024-01-15T00:45:28;96891.28;;;1.72
77414;BMP280;66486;49.992;19.164;2024-01-15T00:47:57;96887.41;;;1.76
77414;BMP280;66486;49.992;19.164;2024-01-15T00:50:25;96885.72;;;1.59
77414;BMP280;66486;49.992;19.164;2024-01-15T00:52:51;96887.63;;;1.59
77414;BMP280;66486;49.992;19.164;2024-01-15T00:55:17;96889.03;;;1.67
77414;BMP280;66486;49.992;19.164;2024-01-15T00:57:43;96881.91;;;1.64
77414;BMP280;66486;49.992;19.164;2024-01-15T01:00:09;96875.09;;;1.63
77414;BMP280;66486;49.992;19.164;2024-01-15T01:02:35;96883.75;;;1.67
77414;BMP280;66486;49.992;19.164;2024-01-15T01:05:01;96875.47;;;1.65
77414;BMP280;66486;49.992;19.164;2024-01-15T01:07:27;96873.13;;;1.70
77414;BMP280;66486;49.992;19.164;2024-01-15T01:09:53;96873.13;;;1.70
77414;BMP280;66486;49.992;19.164;2024-01-15T01:12:19;96858.69;;;1.75
77414;BMP280;66486;49.992;19.164;2024-01-15T01:14:45;96865.50;;;1.76
77414;BMP280;66486;49.992;19.164;2024-01-15T01:17:11;96860.28;;;1.69
77414;BMP280;66486;49.992;19.164;2024-01-15T01:19:37;96861.75;;;1.70
77414;BMP280;66486;49.992;19.164;2024-01-15T01:22:03;96855.16;;;1.85
77414;BMP280;66486;49.992;19.164;2024-01-15T01:24:30;96858.13;;;1.87
77414;BMP280;66486;49.992;19.164;2024-01-15T01:26:55;96859.78;;;1.77
77414;BMP280;66486;49.992;19.164;2024-01-15T01:29:24;96851.00;;;1.84
77414;BMP280;66486;49.992;19.164;2024-01-15T01:31:51;96842.56;;;1.62
77414;BMP280;66486;49.992;19.164;2024-01-15T01:34:21;96834.13;;;1.71
77414;BMP280;66486;49.992;19.164;2024-01-15T01:36:47;96838.19;;;1.79
77414;BMP280;66486;49.992;19.164;2024-01-15T01:39:13;96834.22;;;1.64
77414;BMP280;66486;49.992;19.164;2024-01-15T01:41:39;96829.84;;;1.80
77414;BMP280;66486;49.992;19.164;2024-01-15T01:44:06;96829.00;;;1.87
77414;BMP280;66486;49.992;19.164;2024-01-15T01:46:34;96818.56;;;1.73
77414;BMP280;66486;49.992;19.164;2024-01-15T01:49:05;96810.34;;;1.67
77414;BMP280;66486;49.992;19.164;2024-01-15T01:51:33;96812.59;;;1.69
77414;BMP280;66486;49.992;19.164;2024-01-15T01:54:03;96804.28;;;1.67
77414;BMP280;66486;49.992;19.164;2024-01-15T01:56:30;96804.38;;;1.86
77414;BMP280;66486;49.992;19.164;2024-01-15T01:58:56;96798.84;;;1.77
77414;BMP280;66486;49.992;19.164;2024-01-15T02:01:22;96791.13;;;1.86
77414;BMP280;66486;49.992;19.164;2024-01-15T02:03:48;96791.03;;;1.67
77414;BMP280;66486;49.992;19.164;2024-01-15T02:06:18;96788.66;;;1.76
77414;BMP280;66486;49.992;19.164;2024-01-15T02:08:44;96790.22;;;1.70
77414;BMP280;66486;49.992;19.164;2024-01-15T02:11:10;96786.97;;;1.59
77414;BMP280;66486;49.992;19.164;2024-01-15T02:13:38;96785.22;;;1.48
77414;BMP280;66486;49.992;19.164;2024-01-15T02:16:05;96783.56;;;1.58
77414;BMP280;66486;49.992;19.164;2024-01-15T02:18:45;96776.50;;;1.78
77414;BMP280;66486;49.992;19.164;2024-01-15T02:21:11;96775.47;;;1.72
77414;BMP280;66486;49.992;19.164;2024-01-15T02:23:38;96777.00;;;1.70
77414;BMP280;66486;49.992;19.164;2024-01-15T02:26:05;96779.72;;;1.63
77414;BMP280;66486;49.992;19.164;2024-01-15T02:28:32;96774.91;;;1.58
77414;BMP280;66486;49.992;19.164;2024-01-15T02:30:59;96774.09;;;1.61
77414;BMP280;66486;49.992;19.164;2024-01-15T02:33:25;96763.63;;;1.50
77414;BMP280;66486;49.992;19.164;2024-01-15T02:35:51;96767.47;;;1.76
77414;BMP280;66486;49.992;19.164;2024-01-15T02:38:18;96769.22;;;1.56
77414;BMP280;66486;49.992;19.164;2024-01-15T02:40:45;96763.97;;;1.52
77414;BMP280;66486;49.992;19.164;2024-01-15T02:43:11;96770.72;;;1.57
77414;BMP280;66486;49.992;19.164;2024-01-15T02:45:39;96761.03;;;1.46
77414;BMP280;66486;49.992;19.164;2024-01-15T02:48:05;96758.81;;;1.41
77414;BMP280;66486;49.992;19.164;2024-01-15T02:50:31;96748.19;;;1.45
77414;BMP280;66486;49.992;19.164;2024-01-15T02:52:57;96744.44;;;1.42
77414;BMP280;66486;49.992;19.164;2024-01-15T02:55:23;96743.63;;;1.45
77414;BMP280;66486;49.992;19.164;2024-01-15T02:57:49;96742.56;;;1.39
77414;BMP280;66486;49.992;19.164;2024-01-15T03:00:15;96743.38;;;1.36
77414;BMP280;66486;49.992;19.164;2024-01-15T03:02:44;96728.94;;;1.41
77414;BMP280;66486;49.992;19.164;2024-01-15T03:05:10;96729.94;;;1.50
77414;BMP280;66486;49.992;19.164;2024-01-15T03:07:37;96727.34;;;1.47
77414;BMP280;66486;49.992;19.164;2024-01-15T03:10:05;96720.00;;;1.58
77414;BMP280;66486;49.992;19.164;2024-01-15T03:12:32;96707.28;;;1.49
77414;BMP280;66486;49.992;19.164;2024-01-15T03:14:58;96697.81;;;1.48
77414;BMP280;66486;49.992;19.164;2024-01-15T03:17:24;96697.78;;;1.52
77414;BMP280;66486;49.992;19.164;2024-01-15T03:19:50;96685.06;;;1.67
77414;BMP280;66486;49.992;19.164;2024-01-15T03:22:17;96695.88;;;1.52
77414;BMP280;66486;49.992;19.164;2024-01-15T03:24:43;96685.44;;;1.69
77414;BMP280;66486;49.992;19.164;2024-01-15T03:27:10;96683.44;;;1.49
77414;BMP280;66486;49.992;19.164;2024-01-15T03:29:36;96695.22;;;1.45
77414;BMP280;66486;49.992;19.164;2024-01-15T03:32:05;96689.78;;;1.56
77414;BMP280;66486;49.992;19.164;2024-01-15T03:34:31;96684.13;;;1.54
77414;BMP280;66486;49.992;19.164;2024-01-15T03:36:58;96686.47;;;1.48
77414;BMP280;66486;49.992;19.164;2024-01-15T03:39:25;96678.09;;;1.53
77414;BMP280;66486;49.992;19.164;2024-01-15T03:41:51;96661.44;;;1.52
77414;BMP280;66486;49.992;19.164;2024-01-15T03:44:17;96663.13;;;1.66
77414;BMP280;66486;49.992;19.164;2024-01-15T03:46:43;96659.84;;;1.59
77414;BMP280;66486;49.992;19.164;2024-01-15T03:49:09;96664.75;;;1.60
77414;BMP280;66486;49.992;19.164;2024-01-15T03:51:35;96659.34;;;1.67
77414;BMP280;66486;49.992;19.164;2024-01-15T03:54:01;96650.31;;;1.65
77414;BMP280;66486;49.992;19.164;2024-01-15T03:56:27;96656.50;;;1.55
77414;BMP280;66486;49.992;19.164;2024-01-15T03:58:53;96650.91;;;1.49
77414;BMP280;66486;49.992;19.164;2024-01-15T04:01:19;96640.97;;;1.57
77414;BMP280;66486;49.992;19.164;2024-01-15T04:03:49;96651.78;;;1.66
77414;BMP280;66486;49.992;19.164;2024-01-15T04:06:15;96649.13;;;1.66
77414;BMP280;66486;49.992;19.164;2024-01-15T04:08:41;96651.97;;;1.78
77414;BMP280;66486;49.992;19.164;2024-01-15T04:11:07;96642.63;;;1.70
77414;BMP280;66486;49.992;19.164;2024-01-15T04:13:33;96631.97;;;1.74
77414;BMP280;66486;49.992;19.164;2024-01-15T04:16:00;96632.41;;;1.72
77414;BMP280;66486;49.992;19.164;2024-01-15T04:18:26;96649.84;;;1.70
77414;BMP280;66486;49.992;19.164;2024-01-15T04:20:52;96642.31;;;1.68
77414;BMP280;66486;49.992;19.164;2024-01-15T04:23:18;96635.34;;;1.78
77414;BMP280;66486;49.992;19.164;2024-01-15T04:25:44;96639.88;;;1.77
77414;BMP280;66486;49.992;19.164;2024-01-15T04:28:12;96638.19;;;1.87
77414;BMP280;66486;49.992;19.164;2024-01-15T04:30:38;96631.81;;;1.84
77414;BMP280;66486;49.992;19.164;2024-01-15T04:33:04;96634.88;;;1.83
77414;BMP280;66486;49.992;19.164;2024-01-15T04:35:31;96635.22;;;1.85
77414;BMP280;66486;49.992;19.164;2024-01-15T04:37:56;96630.34;;;1.83
77414;BMP280;66486;49.992;19.164;2024-01-15T04:40:23;96628.63;;;1.93
77414;BMP280;66486;49.992;19.164;2024-01-15T04:42:48;96619.16;;;1.92
77414;BMP280;66486;49.992;19.164;2024-01-15T04:45:15;96626.03;;;1.89
77414;BMP280;66486;49.992;19.164;2024-01-15T04:47:40;96614.59;;;2.16
77414;BMP280;66486;49.992;19.164;2024-01-15T04:50:08;96618.94;;;2.06
77414;BMP280;66486;49.992;19.164;2024-01-15T04:52:34;96606.78;;;2.09
77414;BMP280;66486;49.992;19.164;2024-01-15T04:55:00;96608.38;;;2.02
77414;BMP280;66486;49.992;19.164;2024-01-15T04:57:26;96603.22;;;1.95
77414;BMP280;66486;49.992;19.164;2024-01-15T04:59:52;96616.75;;;2.01
77414;BMP280;66486;49.992;19.164;2024-01-15T05:02:18;96613.50;;;2.13
77414;BMP280;66486;49.992;19.164;2024-01-15T05:04:44;96597.72;;;2.06
77414;BMP280;66486;49.992;19.164;2024-01-15T05:07:10;96595.88;;;2.03
77414;BMP280;66486;49.992;19.164;2024-01-15T05:09:39;96609.13;;;2.03
77414;BMP280;66486;49.992;19.164;2024-01-15T05:12:05;96613.63;;;2.06
77414;BMP280;66486;49.992;19.164;2024-01-15T05:14:31;96598.06;;;2.08
77414;BMP280;66486;49.992;19.164;2024-01-15T05:16:57;96605.72;;;2.02
77414;BMP280;66486;49.992;19.164;2024-01-15T05:19:23;96607.56;;;2.06
77414;BMP280;66486;49.992;19.164;2024-01-15T05:21:49;96604.41;;;1.91
77414;BMP280;66486;49.992;19.164;2024-01-15T05:24:15;96608.56;;;1.92
77414;BMP280;66486;49.992;19.164;2024-01-15T05:26:41;96594.50;;;1.95
77414;BMP280;66486;49.992;19.164;2024-01-15T05:29:08;96605.03;;;1.98
77414;BMP280;66486;49.992;19.164;2024-01-15T05:31:35;96594.38;;;1.82
77414;BMP280;66486;49.992;19.164;2024-01-15T05:34:02;96602.34;;;1.82
77414;BMP280;66486;49.992;19.164;2024-01-15T05:36:30;96601.59;;;1.82
77414;BMP280;66486;49.992;19.164;2024-01-15T05:38:56;96617.94;;;1.77
77414;BMP280;66486;49.992;19.164;2024-01-15T06:45:39;96611.78;;;1.83
77414;BMP280;66486;49.992;19.164;2024-01-15T06:48:06;96614.13;;;1.78
77414;BMP280;66486;49.992;19.164;2024-01-15T06:50:35;96614.88;;;1.78
77414;BMP280;66486;49.992;19.164;2024-01-15T06:53:02;96628.31;;;1.87
77414;BMP280;66486;49.992;19.164;2024-01-15T06:55:28;96621.22;;;1.84
77414;BMP280;66486;49.992;19.164;2024-01-15T06:58:01;96631.38;;;1.86
77414;BMP280;66486;49.992;19.164;2024-01-15T07:00:27;96636.78;;;1.82
77414;BMP280;66486;49.992;19.164;2024-01-15T07:02:53;96624.13;;;1.90
77414;BMP280;66486;49.992;19.164;2024-01-15T07:05:20;96629.75;;;1.92
77414;BMP280;66486;49.992;19.164;2024-01-15T07:07:50;96642.56;;;1.97
77414;BMP280;66486;49.992;19.164;2024-01-15T07:10:19;96634.38;;;1.88
77414;BMP280;66486;49.992;19.164;2024-01-15T07:12:45;96639.88;;;1.77
77414;BMP280;66486;49.992;19.164;2024-01-15T07:15:11;96639.94;;;1.74
77414;BMP280;66486;49.992;19.164;2024-01-15T07:17:38;96634.13;;;1.82
77414;BMP280;66486;49.992;19.164;2024-01-15T07:20:08;96637.28;;;1.74
77414;BMP280;66486;49.992;19.164;2024-01-15T07:22:36;96628.53;;;1.77
77414;BMP280;66486;49.992;19.164;2024-01-15T07:37:55;96673.63;;;1.73
77414;BMP280;66486;49.992;19.164;2024-01-15T07:40:22;96714.56;;;1.92
77414;BMP280;66486;49.992;19.164;2024-01-15T07:42:48;96718.22;;;1.78
77414;BMP280;66486;49.992;19.164;2024-01-15T07:45:14;96702.22;;;1.85
77414;BMP280;66486;49.992;19.164;2024-01-15T07:47:40;96695.47;;;1.81
77414;BMP280;66486;49.992;19.164;2024-01-15T07:50:06;96693.28;;;1.76
77414;BMP280;66486;49.992;19.164;2024-01-15T07:52:33;96699.66;;;1.78
77414;BMP280;66486;49.992;19.164;2024-01-15T07:54:59;96688.22;;;1.85
77414;BMP280;66486;49.992;19.164;2024-01-15T07:57:26;96696.97;;;1.82
77414;BMP280;66486;49.992;19.164;2024-01-15T07:59:52;96708.22;;;1.86
77414;BMP280;66486;49.992;19.164;2024-01-15T08:02:19;96717.53;;;1.97
77414;BMP280;66486;49.992;19.164;2024-01-15T08:04:45;96719.00;;;1.98
77414;BMP280;66486;49.992;19.164;2024-01-15T08:07:11;96733.69;;;1.80
77414;BMP280;66486;49.992;19.164;2024-01-15T08:09:39;96716.75;;;1.74
77414;BMP280;66486;49.992;19.164;2024-01-15T08:12:05;96718.38;;;1.68
77414;BMP280;66486;49.992;19.164;2024-01-15T08:14:32;96705.31;;;1.80
77414;BMP280;66486;49.992;19.164;2024-01-15T08:16:58;96713.88;;;1.88
77414;BMP280;66486;49.992;19.164;2024-01-15T08:19:24;96719.16;;;1.88
77414;BMP280;66486;49.992;19.164;2024-01-15T08:21:50;96714.19;;;1.93
77414;BMP280;66486;49.992;19.164;2024-01-15T08:24:16;96715.50;;;1.82
77414;BMP280;66486;49.992;19.164;2024-01-15T08:26:42;96708.47;;;1.95
77414;BMP280;66486;49.992;19.164;2024-01-15T08:29:09;96711.53;;;1.93
77414;BMP280;66486;49.992;19.164;2024-01-15T08:31:35;96724.78;;;1.93
77414;BMP280;66486;49.992;19.164;2024-01-15T08:34:01;96732.38;;;1.91
77414;BMP280;66486;49.992;19.164;2024-01-15T08:36:28;96731.84;;;1.77
77414;BMP280;66486;49.992;19.164;2024-01-15T08:50:33;96726.25;;;1.71
77414;BMP280;66486;49.992;19.164;2024-01-15T08:53:00;96729.88;;;1.58
77414;BMP280;66486;49.992;19.164;2024-01-15T08:55:26;96734.38;;;1.61
77414;BMP280;66486;49.992;19.164;2024-01-15T08:57:56;96744.50;;;1.66
77414;BMP280;66486;49.992;19.164;2024-01-15T09:00:37;96746.38;;;1.69
77414;BMP280;66486;49.992;19.164;2024-01-15T09:03:04;96755.59;;;1.84
77414;BMP280;66486;49.992;19.164;2024-01-15T09:05:30;96758.72;;;1.79
77414;BMP280;66486;49.992;19.164;2024-01-15T09:07:56;96764.91;;;1.69
77414;BMP280;66486;49.992;19.164;2024-01-15T09:10:26;96753.50;;;1.72
77414;BMP280;66486;49.992;19.164;2024-01-15T09:12:52;96756.25;;;1.88
77414;BMP280;66486;49.992;19.164;2024-01-15T09:15:18;96763.41;;;1.91
77414;BMP280;66486;49.992;19.164;2024-01-15T09:17:45;96765.22;;;1.97
77414;BMP280;66486;49.992;19.164;2024-01-15T09:20:12;96770.63;;;1.90
77414;BMP280;66486;49.992;19.164;2024-01-15T09:22:38;96761.63;;;2.11
77414;BMP280;66486;49.992;19.164;2024-01-15T09:25:12;96757.69;;;1.96
77414;BMP280;66486;49.992;19.164;2024-01-15T09:27:42;96765.22;;;1.97
77414;BMP280;66486;49.992;19.164;2024-01-15T09:30:18;96759.06;;;2.04
77414;BMP280;66486;49.992;19.164;2024-01-15T09:32:48;96749.56;;;2.07
77414;BMP280;66486;49.992;19.164;2024-01-15T09:35:14;96761.72;;;2.04
77414;BMP280;66486;49.992;19.164;2024-01-15T09:37:41;96742.63;;;2.16
77414;BMP280;66486;49.992;19.164;2024-01-15T09:40:14;96739.16;;;2.19
77414;BMP280;66486;49.992;19.164;2024-01-15T09:42:46;96740.19;;;2.25
77414;BMP280;66486;49.992;19.164;2024-01-15T09:45:12;96745.75;;;2.31
77414;BMP280;66486;49.992;19.164;2024-01-15T09:47:40;96739.78;;;2.27
77414;BMP280;66486;49.992;19.164;2024-01-15T09:50:10;96754.63;;;2.44
77414;BMP280;66486;49.992;19.164;2024-01-15T09:52:51;96733.22;;;2.54
77414;BMP280;66486;49.992;19.164;2024-01-15T09:55:21;96723.63;;;2.61
77414;BMP280;66486;49.992;19.164;2024-01-15T09:57:59;96728.50;;;2.42
77414;BMP280;66486;49.992;19.164;2024-01-15T10:00:29;96741.13;;;2.35
77414;BMP280;66486;49.992;19.164;2024-01-15T10:02:58;96732.66;;;2.24
77414;BMP280;66486;49.992;19.164;2024-01-15T10:05:27;96732.16;;;2.06
77414;BMP280;66486;49.992;19.164;2024-01-15T10:07:56;96743.97;;;2.24
77414;BMP280;66486;49.992;19.164;2024-01-15T10:10:31;96749.66;;;1.99
77414;BMP280;66486;49.992;19.164;2024-01-15T10:13:10;96731.94;;;2.20
77414;BMP280;66486;49.992;19.164;2024-01-15T10:15:40;96734.88;;;2.25
77414;BMP280;66486;49.992;19.164;2024-01-15T10:18:10;96747.03;;;1.99
77414;BMP280;66486;49.992;19.164;2024-01-15T10:20:39;96733.97;;;2.12
77414;BMP280;66486;49.992;19.164;2024-01-15T10:23:11;96730.50;;;2.15
77414;BMP280;66486;49.992;19.164;2024-01-15T10:25:37;96714.09;;;2.24
77414;BMP280;66486;49.992;19.164;2024-01-15T10:28:09;96718.50;;;2.30
77414;BMP280;66486;49.992;19.164;2024-01-15T10:57:05;96725.28;;;2.74
77414;BMP280;66486;49.992;19.164;2024-01-15T10:59:37;96733.72;;;2.89
77414;BMP280;66486;49.992;19.164;2024-01-15T11:02:04;96735.88;;;2.94
77414;BMP280;66486;49.992;19.164;2024-01-15T11:04:36;96736.25;;;2.57
77414;BMP280;66486;49.992;19.164;2024-01-15T11:07:03;96729.53;;;2.68
77414;BMP280;66486;49.992;19.164;2024-01-15T11:09:35;96723.66;;;2.80
77414;BMP280;66486;49.992;19.164;2024-01-15T11:12:14;96733.94;;;2.78
77414;BMP280;66486;49.992;19.164;2024-01-15T11:14:52;96724.84;;;2.95
77414;BMP280;66486;49.992;19.164;2024-01-15T11:17:20;96716.69;;;2.86
77414;BMP280;66486;49.992;19.164;2024-01-15T11:19:49;96723.28;;;2.98
77414;BMP280;66486;49.992;19.164;2024-01-15T11:25:13;96719.03;;;2.84
77414;BMP280;66486;49.992;19.164;2024-01-15T11:27:52;96713.56;;;2.72
77414;BMP280;66486;49.992;19.164;2024-01-15T11:30:25;96711.53;;;2.79
77414;BMP280;66486;49.992;19.164;2024-01-15T11:32:52;96719.41;;;2.83
77414;BMP280;66486;49.992;19.164;2024-01-15T11:35:48;96723.13;;;2.89
77414;BMP280;66486;49.992;19.164;2024-01-15T11:38:26;96718.13;;;3.27
77414;BMP280;66486;49.992;19.164;2024-01-15T11:40:55;96722.06;;;3.02
77414;BMP280;66486;49.992;19.164;2024-01-15T11:43:22;96719.31;;;3.26
77414;BMP280;66486;49.992;19.164;2024-01-15T11:45:52;96717.44;;;3.06
77414;BMP280;66486;49.992;19.164;2024-01-15T11:48:21;96710.34;;;3.20
77414;BMP280;66486;49.992;19.164;2024-01-15T11:50:57;96705.44;;;3.18
77414;BMP280;66486;49.992;19.164;2024-01-15T11:53:45;96693.16;;;2.88
77414;BMP280;66486;49.992;19.164;2024-01-15T11:56:32;96702.28;;;2.87
77414;BMP280;66486;49.992;19.164;2024-01-15T11:58:59;96707.44;;;3.14
77414;BMP280;66486;49.992;19.164;2024-01-15T12:01:25;96698.31;;;3.15
77414;BMP280;66486;49.992;19.164;2024-01-15T12:03:58;96697.56;;;3.31
77414;BMP280;66486;49.992;19.164;2024-01-15T12:06:26;96692.59;;;3.33
77414;BMP280;66486;49.992;19.164;2024-01-15T12:09:06;96703.06;;;3.40
77414;BMP280;66486;49.992;19.164;2024-01-15T12:11:39;96702.63;;;3.25
77414;BMP280;66486;49.992;19.164;2024-01-15T12:14:11;96707.75;;;3.16
77414;BMP280;66486;49.992;19.164;2024-01-15T12:16:45;96708.03;;;3.02
77414;BMP280;66486;49.992;19.164;2024-01-15T12:19:15;96709.31;;;2.94
77414;BMP280;66486;49.992;19.164;2024-01-15T12:21:48;96695.97;;;3.17
77414;BMP280;66486;49.992;19.164;2024-01-15T12:26:59;96684.97;;;2.79
77414;BMP280;66486;49.992;19.164;2024-01-15T12:29:25;96688.16;;;3.10
77414;BMP280;66486;49.992;19.164;2024-01-15T12:32:00;96691.34;;;3.21
77414;BMP280;66486;49.992;19.164;2024-01-15T12:34:29;96699.78;;;3.16
77414;BMP280;66486;49.992;19.164;2024-01-15T12:37:04;96703.13;;;3.20
77414;BMP280;66486;49.992;19.164;2024-01-15T12:39:34;96710.75;;;3.18
77414;BMP280;66486;49.992;19.164;2024-01-15T12:42:08;96702.78;;;3.34
77414;BMP280;66486;49.992;19.164;2024-01-15T12:44:37;96709.59;;;3.19
77414;BMP280;66486;49.992;19.164;2024-01-15T12:47:05;96715.81;;;3.29
77414;BMP280;66486;49.992;19.164;2024-01-15T12:49:37;96717.44;;;2.87
77414;BMP280;66486;49.992;19.164;2024-01-15T12:52:09;96706.50;;;2.85
77414;BMP280;66486;49.992;19.164;2024-01-15T12:54:38;96714.31;;;2.72
77414;BMP280;66486;49.992;19.164;2024-01-15T12:57:06;96721.47;;;2.56
77414;BMP280;66486;49.992;19.164;2024-01-15T12:59:38;96718.59;;;2.46
77414;BMP280;66486;49.992;19.164;2024-01-15T13:02:08;96718.44;;;2.34
77414;BMP280;66486;49.992;19.164;2024-01-15T13:04:34;96699.69;;;2.44
77414;BMP280;66486;49.992;19.164;2024-01-15T13:07:10;96705.88;;;2.38
77414;BMP280;66486;49.992;19.164;2024-01-15T13:09:39;96705.13;;;2.37
77414;BMP280;66486;49.992;19.164;2024-01-15T13:12:08;96701.91;;;2.26
77414;BMP280;66486;49.992;19.164;2024-01-15T13:14:35;96695.16;;;2.22
77414;BMP280;66486;49.992;19.164;2024-01-15T13:17:07;96698.31;;;2.13
77414;BMP280;66486;49.992;19.164;2024-01-15T13:19:36;96699.78;;;2.18
77414;BMP280;66486;49.992;19.164;2024-01-15T13:22:11;96705.19;;;2.11
77414;BMP280;66486;49.992;19.164;2024-01-15T13:24:43;96698.31;;;2.13
77414;BMP280;66486;49.992;19.164;2024-01-15T13:27:14;96700.59;;;2.15
77414;BMP280;66486;49.992;19.164;2024-01-15T13:29:40;96693.22;;;2.26
77414;BMP280;66486;49.992;19.164;2024-01-15T13:32:11;96695.72;;;2.33
77414;BMP280;66486;49.992;19.164;2024-01-15T13:34:40;96689.16;;;2.18
77414;BMP280;66486;49.992;19.164;2024-01-15T13:37:10;96699.94;;;2.07
77414;BMP280;66486;49.992;19.164;2024-01-15T13:39:37;96693.94;;;2.03
77414;BMP280;66486;49.992;19.164;2024-01-15T13:42:03;96705.69;;;2.02
77414;BMP280;66486;49.992;19.164;2024-01-15T13:44:38;96697.75;;;2.02
77414;BMP280;66486;49.992;19.164;2024-01-15T13:47:12;96705.13;;;1.91
77414;BMP280;66486;49.992;19.164;2024-01-15T13:49:42;96709.41;;;2.08
77414;BMP280;66486;49.992;19.164;2024-01-15T13:52:08;96699.22;;;1.83
77414;BMP280;66486;49.992;19.164;2024-01-15T13:54:35;96723.16;;;1.99
77414;BMP280;66486;49.992;19.164;2024-01-15T13:57:06;96714.56;;;1.92
77414;BMP280;66486;49.992;19.164;2024-01-15T13:59:35;96709.19;;;1.76
77414;BMP280;66486;49.992;19.164;2024-01-15T14:02:05;96703.06;;;1.79
77414;BMP280;66486;49.992;19.164;2024-01-15T14:04:38;96704.22;;;1.78
77414;BMP280;66486;49.992;19.164;2024-01-15T14:07:05;96703.28;;;1.88
77414;BMP280;66486;49.992;19.164;2024-01-15T14:09:34;96700.53;;;1.72
77414;BMP280;66486;49.992;19.164;2024-01-15T14:12:00;96696.31;;;1.74
77414;BMP280;66486;49.992;19.164;2024-01-15T14:14:27;96704.31;;;1.71
77414;BMP280;66486;49.992;19.164;2024-01-15T14:16:56;96701.78;;;1.64
77414;BMP280;66486;49.992;19.164;2024-01-15T14:19:28;96699.41;;;1.69
77414;BMP280;66486;49.992;19.164;2024-01-15T14:21:55;96696.81;;;1.66
77414;BMP280;66486;49.992;19.164;2024-01-15T14:24:22;96698.75;;;1.62
77414;BMP280;66486;49.992;19.164;2024-01-15T14:26:49;96708.09;;;1.70
77414;BMP280;66486;49.992;19.164;2024-01-15T14:29:18;96703.34;;;1.61
77414;BMP280;66486;49.992;19.164;2024-01-15T14:31:51;96702.16;;;1.62
77414;BMP280;66486;49.992;19.164;2024-01-15T14:34:20;96709.91;;;1.49
77414;BMP280;66486;49.992;19.164;2024-01-15T14:36:57;96713.66;;;1.52
77414;BMP280;66486;49.992;19.164;2024-01-15T14:39:33;96716.34;;;1.48
77414;BMP280;66486;49.992;19.164;2024-01-15T14:42:03;96712.94;;;1.48
77414;BMP280;66486;49.992;19.164;2024-01-15T14:44:34;96730.25;;;1.56
77414;BMP280;66486;49.992;19.164;2024-01-15T14:47:08;96728.50;;;1.46
77414;BMP280;66486;49.992;19.164;2024-01-15T14:49:38;96714.91;;;1.44
77414;BMP280;66486;49.992;19.164;2024-01-15T14:52:04;96724.00;;;1.43
77414;BMP280;66486;49.992;19.164;2024-01-15T14:54:36;96720.09;;;1.51
77414;BMP280;66486;49.992;19.164;2024-01-15T14:57:03;96720.09;;;1.51
77414;BMP280;66486;49.992;19.164;2024-01-15T14:59:32;96704.00;;;1.38
77414;BMP280;66486;49.992;19.164;2024-01-15T15:02:07;96715.66;;;1.44
77414;BMP280;66486;49.992;19.164;2024-01-15T15:04:34;96730.31;;;1.52
77414;BMP280;66486;49.992;19.164;2024-01-15T15:07:03;96732.84;;;1.33
77414;BMP280;66486;49.992;19.164;2024-01-15T15:09:29;96726.00;;;1.35
77414;BMP280;66486;49.992;19.164;2024-01-15T15:12:24;96716.50;;;1.38
77414;BMP280;66486;49.992;19.164;2024-01-15T15:14:51;96729.31;;;1.39
77414;BMP280;66486;49.992;19.164;2024-01-15T15:17:20;96726.69;;;1.39
77414;BMP280;66486;49.992;19.164;2024-01-15T15:19:49;96732.13;;;1.29
77414;BMP280;66486;49.992;19.164;2024-01-15T15:22:25;96717.47;;;1.24
77414;BMP280;66486;49.992;19.164;2024-01-15T15:24:58;96731.78;;;1.27
77414;BMP280;66486;49.992;19.164;2024-01-15T15:27:28;96731.03;;;1.26
77414;BMP280;66486;49.992;19.164;2024-01-15T15:29:59;96738.97;;;1.26
77414;BMP280;66486;49.992;19.164;2024-01-15T15:32:25;96735.16;;;1.31
77414;BMP280;66486;49.992;19.164;2024-01-15T15:34:53;96739.44;;;1.48
77414;BMP280;66486;49.992;19.164;2024-01-15T15:37:23;96742.09;;;1.48
77414;BMP280;66486;49.992;19.164;2024-01-15T15:39:49;96738.13;;;1.33
77414;BMP280;66486;49.992;19.164;2024-01-15T15:42:16;96730.34;;;1.22
77414;BMP280;66486;49.992;19.164;2024-01-15T15:44:42;96742.22;;;1.37
77414;BMP280;66486;49.992;19.164;2024-01-15T15:47:13;96728.44;;;1.23
77414;BMP280;66486;49.992;19.164;2024-01-15T15:49:45;96728.34;;;1.30
77414;BMP280;66486;49.992;19.164;2024-01-15T15:52:12;96730.50;;;1.38
77414;BMP280;66486;49.992;19.164;2024-01-15T15:54:39;96741.69;;;1.49
77414;BMP280;66486;49.992;19.164;2024-01-15T15:57:17;96737.63;;;1.41
77414;BMP280;66486;49.992;19.164;2024-01-15T15:59:48;96741.13;;;1.35
77414;BMP280;66486;49.992;19.164;2024-01-15T16:02:15;96742.22;;;1.37
77414;BMP280;66486;49.992;19.164;2024-01-15T16:04:41;96737.03;;;1.30
77414;BMP280;66486;49.992;19.164;2024-01-15T16:07:10;96738.81;;;1.37
77414;BMP280;66486;49.992;19.164;2024-01-15T16:09:43;96731.00;;;1.30
77414;BMP280;66486;49.992;19.164;2024-01-15T16:12:13;96742.59;;;1.36
77414;BMP280;66486;49.992;19.164;2024-01-15T16:14:44;96744.72;;;1.48
77414;BMP280;66486;49.992;19.164;2024-01-15T16:17:13;96749.88;;;1.59